MST,Max TemperatureF,Mean TemperatureF,Min TemperatureF,Max Dew PointF,MeanDew PointF,Min DewpointF,Max Humidity, Mean Humidity, Min Humidity, Max Sea Level PressureIn, Mean Sea Level PressureIn, Min Sea Level PressureIn, Max VisibilityMiles, Mean VisibilityMiles, Min VisibilityMiles, Max Wind SpeedMPH, Mean Wind SpeedMPH, Max Gust SpeedMPH,PrecipitationIn, CloudCover, Events, WindDirDegrees
2014-2-1,20,9,-3,11,6,-4,91,70,49,30.13,29.92,29.79,10,6,0,13,5,15,T,6,Fog-Snow,135
2014-2-2,22,8,-7,10,0,-8,91,69,46,30.15,30.09,29.97,10,10,8,21,9,22,0.00,0,,202
2014-2-3,22,15,7,15,8,0,83,66,49,30.00,29.88,29.74,10,8,0,26,9,35,T,5,Snow,61
2014-2-4,15,-1,-18,9,-3,-21,84,79,73,30.38,29.89,29.70,10,3,0,29,14,36,T,7,Fog-Snow,103
2014-2-5,-5,-12,-20,-9,-16,-24,89,80,70,30.53,30.25,29.90,10,5,0,18,6,21,T,5,Snow,288
2014-2-6,19,3,-14,12,-10,-18,88,80,72,30.34,29.98,29.76,10,4,1,13,5,16,T,8,Snow,344
2014-2-7,30,20,10,23,16,5,84,71,58,29.92,29.78,29.67,10,7,0,26,12,30,T,5,Fog-Snow,255
2014-2-8,33,28,22,27,23,16,88,77,66,29.89,29.77,29.71,10,4,0,45,24,55,T,6,Fog-Rain-Snow,256
2014-2-9,36,27,18,28,23,13,92,80,68,29.96,29.82,29.75,10,5,0,40,21,47,T,6,Fog-Rain-Snow,247
2014-2-10,32,23,13,24,17,10,77,70,62,30.13,30.01,29.94,10,10,9,22,8,26,T,4,Snow,278
2014-2-11,30,22,15,19,14,8,78,68,58,30.12,30.01,29.88,10,9,4,43,21,56,T,1,Snow,247
2014-2-12,35,25,14,26,20,13,92,72,51,30.15,29.97,29.83,10,10,10,40,19,49,T,2,,242
2014-2-13,43,37,30,28,23,18,72,59,46,29.86,29.78,29.70,10,10,10,52,33,60,0.00,1,,275
2014-2-14,40,32,24,31,19,7,76,54,32,30.01,29.88,29.70,10,10,10,44,23,56,0.00,4,,279
2014-2-15,43,38,33,34,29,25,89,71,53,30.02,29.88,29.65,10,8,1,51,21,62,T,6,Rain-Snow,303
2014-2-16,50,37,23,32,23,12,76,54,32,29.95,29.78,29.55,10,6,0,47,24,60,0.03,3,Fog-Snow,257
2014-2-17,44,31,17,13,9,5,68,47,25,30.13,29.99,29.78,10,10,10,38,15,46,0.00,0,,221
2014-2-18,40,35,29,17,13,9,51,40,29,29.96,29.83,29.60,10,10,10,45,26,53,0.00,0,,260
2014-2-19,45,31,16,27,16,8,85,57,28,29.84,29.65,29.43,10,8,0,45,19,56,T,4,Fog-Snow,301
2014-2-20,24,19,13,8,5,0,73,56,39,30.01,29.91,29.70,10,10,10,47,31,57,0.00,1,,280
2014-2-21,34,28,22,16,11,9,68,53,38,29.89,29.83,29.76,10,10,10,49,34,58,T,3,,273
2014-2-22,30,23,16,23,18,10,92,71,50,29.98,29.82,29.75,10,3,0,36,14,42,0.06,7,Fog-Snow,276
2014-2-23,40,31,22,22,19,16,92,68,44,29.99,29.91,29.85,10,8,2,39,21,46,T,4,Snow,272
2014-2-24,48,36,24,20,17,13,68,50,31,29.97,29.83,29.76,10,10,10,49,25,61,0.00,1,,257
2014-2-25,41,14,-13,28,7,-15,95,68,40,30.31,30.05,29.77,10,4,0,33,12,43,0.07,5,Fog-Snow,296
2014-2-26,31,9,-14,18,3,-15,91,69,47,30.34,30.19,29.96,10,9,0,14,6,17,0.00,0,Fog,166
2014-2-27,44,34,23,31,25,19,89,67,45,29.92,29.65,29.47,10,10,10,32,14,40,T,4,,245
2014-2-28,41,34,26,30,24,19,89,65,41,29.67,29.60,29.48,10,10,10,38,20,47,T,5,,231